UPSVAC Airport Information Service

San Bernardino International Airport

ICAO: KSBD Country: United States
Latitude: 34.1167 Longitude: -117.233
Latest Arrival : UPS1014 (KFAR-KSBD) Latest Departure : UPS684 (KSBD-KRFD)


WX CaptureLIVE
Data provided by noaa.gov | Fetched at 21:20:32

METAR : KSBD 272052Z 26008KT 5SM HZ CLR 21/M04 A2989

TAF : KSBD 271736Z 2718/2818 VRB05KT P6SM SKC FM280800 36010KT P6SM SKC FM281500 VRB05KT P6SM SKC WS015/03015KT


Runway Data for KSBD
Data provided by openaviationdata.com

Runway ID Mag Var Hdg Length Elevation Surface ILS Freq ILS Id ILS Slope
6 13 56° 9993 ft 1119 ft Asphalt 109.3 ISBD 3
24 13 236° 9993 ft 1119 ft Asphalt -- -- --

San Bernardino International Airport, United States
Use only for reference purposes



Not for navigational purposes.